sensor_id;sensor_type;location;lat;lon;timestamp;P1;durP1;ratioP1;P2;durP2;ratioP2
32932;SDS011;19444;50.518;10.870;2023-04-24T00:00:02;1.92;;;1.30;;
32932;SDS011;19444;50.518;10.870;2023-04-24T00:03:08;2.55;;;1.40;;
32932;SDS011;19444;50.518;10.870;2023-04-24T00:06:05;1.92;;;1.70;;
32932;SDS011;19444;50.518;10.870;2023-04-24T00:09:04;5.28;;;2.20;;
32932;SDS011;19444;50.518;10.870;2023-04-24T00:12:01;2.05;;;1.40;;
32932;SDS011;19444;50.518;10.870;2023-04-24T00:15:00;3.10;;;2.15;;
32932;SDS011;19444;50.518;10.870;2023-04-24T00:17:58;2.65;;;1.70;;
32932;SDS011;19444;50.518;10.870;2023-04-24T00:20:55;1.77;;;1.20;;
32932;SDS011;19444;50.518;10.870;2023-04-24T00:23:52;1.35;;;1.25;;
32932;SDS011;19444;50.518;10.870;2023-04-24T00:26:49;1.85;;;1.38;;
32932;SDS011;19444;50.518;10.870;2023-04-24T00:29:46;1.42;;;1.10;;
32932;SDS011;19444;50.518;10.870;2023-04-24T00:32:43;1.75;;;1.30;;
32932;SDS011;19444;50.518;10.870;2023-04-24T00:35:40;2.15;;;1.48;;
32932;SDS011;19444;50.518;10.870;2023-04-24T00:38:37;2.78;;;1.50;;
32932;SDS011;19444;50.518;10.870;2023-04-24T00:41:34;3.40;;;1.65;;
32932;SDS011;19444;50.518;10.870;2023-04-24T00:44:31;2.28;;;1.33;;
32932;SDS011;19444;50.518;10.870;2023-04-24T00:47:30;2.50;;;1.55;;
32932;SDS011;19444;50.518;10.870;2023-04-24T00:50:29;2.95;;;1.67;;
32932;SDS011;19444;50.518;10.870;2023-04-24T00:53:26;2.33;;;1.60;;
32932;SDS011;19444;50.518;10.870;2023-04-24T00:56:23;2.10;;;1.58;;
32932;SDS011;19444;50.518;10.870;2023-04-24T00:59:20;1.77;;;1.38;;
32932;SDS011;19444;50.518;10.870;2023-04-24T01:02:17;2.97;;;1.70;;
32932;SDS011;19444;50.518;10.870;2023-04-24T01:05:15;3.58;;;1.73;;
32932;SDS011;19444;50.518;10.870;2023-04-24T01:08:13;1.90;;;1.63;;
32932;SDS011;19444;50.518;10.870;2023-04-24T01:11:11;1.90;;;1.58;;
32932;SDS011;19444;50.518;10.870;2023-04-24T01:14:08;3.30;;;1.88;;
32932;SDS011;19444;50.518;10.870;2023-04-24T01:17:05;3.40;;;2.10;;
32932;SDS011;19444;50.518;10.870;2023-04-24T01:20:03;2.33;;;1.48;;
32932;SDS011;19444;50.518;10.870;2023-04-24T01:23:02;1.98;;;1.77;;
32932;SDS011;19444;50.518;10.870;2023-04-24T01:25:59;3.58;;;1.70;;
32932;SDS011;19444;50.518;10.870;2023-04-24T01:28:56;2.95;;;2.03;;
32932;SDS011;19444;50.518;10.870;2023-04-24T01:31:53;3.13;;;2.45;;
32932;SDS011;19444;50.518;10.870;2023-04-24T01:34:51;3.97;;;2.00;;
32932;SDS011;19444;50.518;10.870;2023-04-24T01:37:48;2.72;;;1.88;;
32932;SDS011;19444;50.518;10.870;2023-04-24T01:40:45;2.42;;;1.67;;
32932;SDS011;19444;50.518;10.870;2023-04-24T01:43:42;2.95;;;2.15;;
32932;SDS011;19444;50.518;10.870;2023-04-24T01:46:39;2.47;;;1.75;;
32932;SDS011;19444;50.518;10.870;2023-04-24T01:49:40;2.50;;;1.90;;
32932;SDS011;19444;50.518;10.870;2023-04-24T01:52:37;2.13;;;1.85;;
32932;SDS011;19444;50.518;10.870;2023-04-24T01:55:35;2.35;;;1.40;;
32932;SDS011;19444;50.518;10.870;2023-04-24T01:58:31;2.13;;;1.33;;
32932;SDS011;19444;50.518;10.870;2023-04-24T02:01:32;2.78;;;1.45;;
32932;SDS011;19444;50.518;10.870;2023-04-24T02:04:34;3.17;;;1.98;;
32932;SDS011;19444;50.518;10.870;2023-04-24T02:07:31;2.78;;;1.73;;
32932;SDS011;19444;50.518;10.870;2023-04-24T02:10:28;3.25;;;2.38;;
32932;SDS011;19444;50.518;10.870;2023-04-24T02:13:25;4.38;;;2.22;;
32932;SDS011;19444;50.518;10.870;2023-04-24T02:16:22;2.08;;;1.45;;
32932;SDS011;19444;50.518;10.870;2023-04-24T02:19:19;5.47;;;2.25;;
32932;SDS011;19444;50.518;10.870;2023-04-24T02:22:16;3.38;;;2.10;;
32932;SDS011;19444;50.518;10.870;2023-04-24T02:25:13;2.72;;;1.85;;
32932;SDS011;19444;50.518;10.870;2023-04-24T02:28:10;3.13;;;1.95;;
32932;SDS011;19444;50.518;10.870;2023-04-24T02:31:07;3.20;;;1.88;;
32932;SDS011;19444;50.518;10.870;2023-04-24T02:34:04;2.10;;;1.60;;
32932;SDS011;19444;50.518;10.870;2023-04-24T02:37:00;3.17;;;2.08;;
32932;SDS011;19444;50.518;10.870;2023-04-24T02:39:57;5.18;;;2.28;;
32932;SDS011;19444;50.518;10.870;2023-04-24T02:42:54;2.35;;;1.70;;
32932;SDS011;19444;50.518;10.870;2023-04-24T02:45:51;2.67;;;1.75;;
32932;SDS011;19444;50.518;10.870;2023-04-24T02:48:48;2.70;;;1.95;;
32932;SDS011;19444;50.518;10.870;2023-04-24T02:51:45;3.00;;;2.00;;
32932;SDS011;19444;50.518;10.870;2023-04-24T02:54:42;4.90;;;2.00;;
32932;SDS011;19444;50.518;10.870;2023-04-24T02:57:39;3.08;;;1.90;;
32932;SDS011;19444;50.518;10.870;2023-04-24T03:00:36;2.28;;;1.60;;
32932;SDS011;19444;50.518;10.870;2023-04-24T03:03:32;3.38;;;1.90;;
32932;SDS011;19444;50.518;10.870;2023-04-24T03:06:29;1.77;;;1.58;;
32932;SDS011;19444;50.518;10.870;2023-04-24T03:09:29;1.73;;;1.35;;
32932;SDS011;19444;50.518;10.870;2023-04-24T03:12:25;1.63;;;1.33;;
32932;SDS011;19444;50.518;10.870;2023-04-24T03:15:22;2.33;;;1.65;;
32932;SDS011;19444;50.518;10.870;2023-04-24T03:18:19;2.97;;;1.52;;
32932;SDS011;19444;50.518;10.870;2023-04-24T03:21:16;2.65;;;1.70;;
32932;SDS011;19444;50.518;10.870;2023-04-24T03:24:13;2.42;;;1.80;;
32932;SDS011;19444;50.518;10.870;2023-04-24T03:27:10;2.53;;;1.35;;
32932;SDS011;19444;50.518;10.870;2023-04-24T03:30:07;4.38;;;1.90;;
32932;SDS011;19444;50.518;10.870;2023-04-24T03:33:04;2.28;;;1.77;;
32932;SDS011;19444;50.518;10.870;2023-04-24T03:36:01;3.42;;;2.08;;
32932;SDS011;19444;50.518;10.870;2023-04-24T03:38:59;3.33;;;1.40;;
32932;SDS011;19444;50.518;10.870;2023-04-24T03:41:55;3.42;;;1.92;;
32932;SDS011;19444;50.518;10.870;2023-04-24T03:44:52;4.47;;;2.42;;
32932;SDS011;19444;50.518;10.870;2023-04-24T03:47:49;2.65;;;1.90;;
32932;SDS011;19444;50.518;10.870;2023-04-24T03:50:46;3.58;;;1.70;;
32932;SDS011;19444;50.518;10.870;2023-04-24T03:53:43;9.70;;;4.45;;
32932;SDS011;19444;50.518;10.870;2023-04-24T03:56:40;4.50;;;2.35;;
32932;SDS011;19444;50.518;10.870;2023-04-24T03:59:37;3.50;;;1.52;;
32932;SDS011;19444;50.518;10.870;2023-04-24T04:02:33;4.50;;;2.13;;
32932;SDS011;19444;50.518;10.870;2023-04-24T04:05:31;5.20;;;3.08;;
32932;SDS011;19444;50.518;10.870;2023-04-24T04:08:27;3.20;;;1.58;;
32932;SDS011;19444;50.518;10.870;2023-04-24T04:11:24;1.67;;;1.30;;
32932;SDS011;19444;50.518;10.870;2023-04-24T04:14:22;2.72;;;1.20;;
32932;SDS011;19444;50.518;10.870;2023-04-24T04:17:19;1.48;;;1.30;;
32932;SDS011;19444;50.518;10.870;2023-04-24T04:20:16;2.10;;;1.30;;
32932;SDS011;19444;50.518;10.870;2023-04-24T04:23:13;3.95;;;1.05;;
32932;SDS011;19444;50.518;10.870;2023-04-24T04:26:11;2.58;;;1.15;;
32932;SDS011;19444;50.518;10.870;2023-04-24T04:29:08;2.88;;;1.33;;
32932;SDS011;19444;50.518;10.870;2023-04-24T04:32:06;3.47;;;2.22;;
32932;SDS011;19444;50.518;10.870;2023-04-24T04:35:03;3.88;;;2.13;;
32932;SDS011;19444;50.518;10.870;2023-04-24T04:38:01;1.92;;;1.13;;
32932;SDS011;19444;50.518;10.870;2023-04-24T04:40:58;3.90;;;1.50;;
32932;SDS011;19444;50.518;10.870;2023-04-24T04:43:54;2.55;;;1.60;;
32932;SDS011;19444;50.518;10.870;2023-04-24T04:46:54;3.42;;;1.48;;
32932;SDS011;19444;50.518;10.870;2023-04-24T04:49:52;2.10;;;1.17;;
32932;SDS011;19444;50.518;10.870;2023-04-24T04:52:49;4.70;;;1.58;;
32932;SDS011;19444;50.518;10.870;2023-04-24T04:55:46;1.52;;;1.08;;
32932;SDS011;19444;50.518;10.870;2023-04-24T04:58:43;2.65;;;1.45;;
32932;SDS011;19444;50.518;10.870;2023-04-24T05:01:40;6.60;;;4.63;;
32932;SDS011;19444;50.518;10.870;2023-04-24T05:04:37;4.05;;;2.30;;
32932;SDS011;19444;50.518;10.870;2023-04-24T05:07:34;3.63;;;1.83;;
32932;SDS011;19444;50.518;10.870;2023-04-24T05:10:31;3.15;;;1.80;;
32932;SDS011;19444;50.518;10.870;2023-04-24T05:13:28;6.18;;;3.55;;
32932;SDS011;19444;50.518;10.870;2023-04-24T05:16:36;2.58;;;1.30;;
32932;SDS011;19444;50.518;10.870;2023-04-24T05:19:33;2.00;;;1.10;;
32932;SDS011;19444;50.518;10.870;2023-04-24T05:22:32;3.15;;;1.08;;
32932;SDS011;19444;50.518;10.870;2023-04-24T05:25:29;2.97;;;0.70;;
32932;SDS011;19444;50.518;10.870;2023-04-24T05:28:28;1.60;;;0.80;;
32932;SDS011;19444;50.518;10.870;2023-04-24T05:31:25;2.75;;;1.30;;
32932;SDS011;19444;50.518;10.870;2023-04-24T05:34:22;3.42;;;1.30;;
32932;SDS011;19444;50.518;10.870;2023-04-24T05:37:19;1.95;;;1.20;;
32932;SDS011;19444;50.518;10.870;2023-04-24T05:40:15;1.40;;;1.10;;
32932;SDS011;19444;50.518;10.870;2023-04-24T05:43:12;1.80;;;1.20;;
32932;SDS011;19444;50.518;10.870;2023-04-24T05:46:10;3.88;;;1.80;;
32932;SDS011;19444;50.518;10.870;2023-04-24T05:49:08;1.63;;;1.00;;
32932;SDS011;19444;50.518;10.870;2023-04-24T05:52:05;3.58;;;1.38;;
32932;SDS011;19444;50.518;10.870;2023-04-24T05:55:04;3.00;;;0.90;;
32932;SDS011;19444;50.518;10.870;2023-04-24T05:58:02;1.58;;;0.80;;
32932;SDS011;19444;50.518;10.870;2023-04-24T06:00:59;1.52;;;0.90;;
32932;SDS011;19444;50.518;10.870;2023-04-24T06:03:57;1.58;;;0.98;;
32932;SDS011;19444;50.518;10.870;2023-04-24T06:06:55;2.78;;;0.90;;
32932;SDS011;19444;50.518;10.870;2023-04-24T06:09:52;2.22;;;0.80;;
32932;SDS011;19444;50.518;10.870;2023-04-24T06:12:49;1.33;;;0.52;;
32932;SDS011;19444;50.518;10.870;2023-04-24T06:15:46;2.83;;;0.90;;
32932;SDS011;19444;50.518;10.870;2023-04-24T06:18:42;2.92;;;1.40;;
32932;SDS011;19444;50.518;10.870;2023-04-24T06:21:39;4.22;;;1.70;;
32932;SDS011;19444;50.518;10.870;2023-04-24T06:24:36;7.72;;;3.97;;
32932;SDS011;19444;50.518;10.870;2023-04-24T06:27:33;11.77;;;5.55;;
32932;SDS011;19444;50.518;10.870;2023-04-24T06:30:31;6.90;;;3.65;;
32932;SDS011;19444;50.518;10.870;2023-04-24T06:33:28;14.05;;;6.43;;
32932;SDS011;19444;50.518;10.870;2023-04-24T06:36:25;10.07;;;3.97;;
32932;SDS011;19444;50.518;10.870;2023-04-24T06:39:22;4.50;;;1.95;;
32932;SDS011;19444;50.518;10.870;2023-04-24T06:42:19;2.75;;;1.50;;
32932;SDS011;19444;50.518;10.870;2023-04-24T06:45:18;2.10;;;1.15;;
32932;SDS011;19444;50.518;10.870;2023-04-24T06:48:15;1.48;;;0.90;;
32932;SDS011;19444;50.518;10.870;2023-04-24T06:51:12;5.57;;;2.60;;
32932;SDS011;19444;50.518;10.870;2023-04-24T06:54:09;2.95;;;1.20;;
32932;SDS011;19444;50.518;10.870;2023-04-24T06:57:06;1.75;;;0.80;;
32932;SDS011;19444;50.518;10.870;2023-04-24T07:00:04;2.58;;;2.20;;
32932;SDS011;19444;50.518;10.870;2023-04-24T07:03:03;2.38;;;0.85;;
32932;SDS011;19444;50.518;10.870;2023-04-24T07:06:02;1.83;;;0.82;;
32932;SDS011;19444;50.518;10.870;2023-04-24T07:09:00;3.72;;;1.20;;
32932;SDS011;19444;50.518;10.870;2023-04-24T07:11:57;2.17;;;0.80;;
32932;SDS011;19444;50.518;10.870;2023-04-24T07:14:54;3.22;;;1.38;;
32932;SDS011;19444;50.518;10.870;2023-04-24T07:17:51;3.70;;;0.93;;
32932;SDS011;19444;50.518;10.870;2023-04-24T07:20:48;2.05;;;0.88;;
32932;SDS011;19444;50.518;10.870;2023-04-24T07:23:46;2.38;;;0.93;;
32932;SDS011;19444;50.518;10.870;2023-04-24T07:26:43;1.50;;;0.70;;
32932;SDS011;19444;50.518;10.870;2023-04-24T07:29:40;1.92;;;0.85;;
32932;SDS011;19444;50.518;10.870;2023-04-24T07:32:38;2.22;;;0.80;;
32932;SDS011;19444;50.518;10.870;2023-04-24T07:35:34;1.95;;;0.80;;
32932;SDS011;19444;50.518;10.870;2023-04-24T07:38:31;1.20;;;0.80;;
32932;SDS011;19444;50.518;10.870;2023-04-24T07:41:28;2.22;;;0.82;;
32932;SDS011;19444;50.518;10.870;2023-04-24T07:44:25;0.80;;;0.63;;
32932;SDS011;19444;50.518;10.870;2023-04-24T07:47:22;1.77;;;1.00;;
32932;SDS011;19444;50.518;10.870;2023-04-24T07:50:20;2.22;;;1.00;;
32932;SDS011;19444;50.518;10.870;2023-04-24T07:53:17;1.63;;;0.73;;
32932;SDS011;19444;50.518;10.870;2023-04-24T07:56:14;1.13;;;0.73;;
32932;SDS011;19444;50.518;10.870;2023-04-24T07:59:11;0.98;;;0.60;;
32932;SDS011;19444;50.518;10.870;2023-04-24T08:02:08;1.52;;;0.70;;
32932;SDS011;19444;50.518;10.870;2023-04-24T08:05:06;1.30;;;0.80;;
32932;SDS011;19444;50.518;10.870;2023-04-24T08:08:04;2.05;;;0.77;;
32932;SDS011;19444;50.518;10.870;2023-04-24T08:11:01;1.85;;;1.17;;
32932;SDS011;19444;50.518;10.870;2023-04-24T08:13:57;1.67;;;1.00;;
32932;SDS011;19444;50.518;10.870;2023-04-24T08:16:55;1.52;;;0.77;;
32932;SDS011;19444;50.518;10.870;2023-04-24T08:19:52;1.75;;;1.05;;
32932;SDS011;19444;50.518;10.870;2023-04-24T08:22:55;1.23;;;0.77;;
32932;SDS011;19444;50.518;10.870;2023-04-24T08:25:52;2.90;;;0.98;;
32932;SDS011;19444;50.518;10.870;2023-04-24T08:28:50;2.58;;;2.05;;
32932;SDS011;19444;50.518;10.870;2023-04-24T08:31:46;4.95;;;1.95;;
32932;SDS011;19444;50.518;10.870;2023-04-24T08:34:43;2.10;;;1.30;;
32932;SDS011;19444;50.518;10.870;2023-04-24T08:37:43;1.20;;;0.70;;
32932;SDS011;19444;50.518;10.870;2023-04-24T08:40:40;2.58;;;1.50;;
32932;SDS011;19444;50.518;10.870;2023-04-24T08:43:37;2.42;;;1.40;;
32932;SDS011;19444;50.518;10.870;2023-04-24T08:46:36;1.73;;;0.82;;
32932;SDS011;19444;50.518;10.870;2023-04-24T08:49:33;2.13;;;0.80;;
32932;SDS011;19444;50.518;10.870;2023-04-24T08:52:33;3.22;;;2.10;;
32932;SDS011;19444;50.518;10.870;2023-04-24T08:55:30;4.70;;;2.00;;
32932;SDS011;19444;50.518;10.870;2023-04-24T08:58:29;1.20;;;0.90;;
32932;SDS011;19444;50.518;10.870;2023-04-24T09:01:27;3.70;;;1.08;;
32932;SDS011;19444;50.518;10.870;2023-04-24T09:04:28;2.20;;;1.23;;
32932;SDS011;19444;50.518;10.870;2023-04-24T09:07:26;2.50;;;1.15;;
32932;SDS011;19444;50.518;10.870;2023-04-24T09:10:26;3.33;;;0.95;;
32932;SDS011;19444;50.518;10.870;2023-04-24T09:13:26;1.65;;;0.60;;
32932;SDS011;19444;50.518;10.870;2023-04-24T09:16:24;0.80;;;0.50;;
32932;SDS011;19444;50.518;10.870;2023-04-24T09:19:22;1.00;;;0.60;;
32932;SDS011;19444;50.518;10.870;2023-04-24T09:22:19;1.10;;;0.63;;
32932;SDS011;19444;50.518;10.870;2023-04-24T09:25:17;1.27;;;0.70;;
32932;SDS011;19444;50.518;10.870;2023-04-24T09:28:14;1.23;;;0.70;;
32932;SDS011;19444;50.518;10.870;2023-04-24T09:31:18;2.15;;;0.80;;
32932;SDS011;19444;50.518;10.870;2023-04-24T09:34:25;1.35;;;0.80;;
32932;SDS011;19444;50.518;10.870;2023-04-24T09:37:27;2.15;;;1.20;;
32932;SDS011;19444;50.518;10.870;2023-04-24T09:40:25;1.40;;;1.00;;
32932;SDS011;19444;50.518;10.870;2023-04-24T09:43:22;1.58;;;0.85;;
32932;SDS011;19444;50.518;10.870;2023-04-24T09:46:29;2.00;;;0.93;;
32932;SDS011;19444;50.518;10.870;2023-04-24T09:49:30;1.70;;;0.70;;
32932;SDS011;19444;50.518;10.870;2023-04-24T09:52:32;1.83;;;1.10;;
32932;SDS011;19444;50.518;10.870;2023-04-24T09:55:29;1.45;;;0.85;;
32932;SDS011;19444;50.518;10.870;2023-04-24T09:58:27;1.20;;;0.88;;
32932;SDS011;19444;50.518;10.870;2023-04-24T10:01:32;1.48;;;0.57;;
32932;SDS011;19444;50.518;10.870;2023-04-24T10:04:30;1.30;;;0.80;;
32932;SDS011;19444;50.518;10.870;2023-04-24T10:07:26;1.30;;;0.82;;
32932;SDS011;19444;50.518;10.870;2023-04-24T10:10:24;1.25;;;0.60;;
32932;SDS011;19444;50.518;10.870;2023-04-24T10:13:21;1.90;;;0.80;;
32932;SDS011;19444;50.518;10.870;2023-04-24T10:16:18;2.08;;;1.20;;
32932;SDS011;19444;50.518;10.870;2023-04-24T10:19:17;0.88;;;0.60;;
32932;SDS011;19444;50.518;10.870;2023-04-24T10:22:14;1.23;;;0.70;;
32932;SDS011;19444;50.518;10.870;2023-04-24T10:25:13;0.80;;;0.60;;
32932;SDS011;19444;50.518;10.870;2023-04-24T10:28:12;0.82;;;0.68;;
32932;SDS011;19444;50.518;10.870;2023-04-24T10:31:10;0.95;;;0.60;;
32932;SDS011;19444;50.518;10.870;2023-04-24T10:34:09;0.90;;;0.57;;
32932;SDS011;19444;50.518;10.870;2023-04-24T10:37:07;1.35;;;0.50;;
32932;SDS011;19444;50.518;10.870;2023-04-24T10:40:04;1.30;;;1.00;;
32932;SDS011;19444;50.518;10.870;2023-04-24T10:43:07;1.00;;;0.60;;
32932;SDS011;19444;50.518;10.870;2023-04-24T10:46:07;2.03;;;0.90;;
32932;SDS011;19444;50.518;10.870;2023-04-24T10:49:07;2.10;;;1.13;;
32932;SDS011;19444;50.518;10.870;2023-04-24T10:52:08;1.67;;;1.20;;
32932;SDS011;19444;50.518;10.870;2023-04-24T10:55:05;1.75;;;1.27;;
32932;SDS011;19444;50.518;10.870;2023-04-24T10:58:06;1.60;;;0.98;;
32932;SDS011;19444;50.518;10.870;2023-04-24T11:01:03;1.92;;;1.08;;
32932;SDS011;19444;50.518;10.870;2023-04-24T11:04:01;1.15;;;0.70;;
32932;SDS011;19444;50.518;10.870;2023-04-24T11:07:00;1.27;;;0.88;;
32932;SDS011;19444;50.518;10.870;2023-04-24T11:09:58;1.00;;;0.80;;
32932;SDS011;19444;50.518;10.870;2023-04-24T11:12:57;1.33;;;0.70;;
32932;SDS011;19444;50.518;10.870;2023-04-24T11:16:12;2.90;;;1.15;;
32932;SDS011;19444;50.518;10.870;2023-04-24T11:19:32;1.20;;;0.60;;
32932;SDS011;19444;50.518;10.870;2023-04-24T11:22:31;1.58;;;1.02;;
32932;SDS011;19444;50.518;10.870;2023-04-24T11:25:31;2.15;;;0.85;;
32932;SDS011;19444;50.518;10.870;2023-04-24T11:28:28;2.58;;;1.08;;
32932;SDS011;19444;50.518;10.870;2023-04-24T11:31:39;1.52;;;0.50;;
32932;SDS011;19444;50.518;10.870;2023-04-24T11:34:48;1.90;;;1.02;;
32932;SDS011;19444;50.518;10.870;2023-04-24T11:37:57;2.17;;;1.15;;
32932;SDS011;19444;50.518;10.870;2023-04-24T11:41:03;1.33;;;0.90;;
32932;SDS011;19444;50.518;10.870;2023-04-24T11:44:02;3.33;;;1.30;;
32932;SDS011;19444;50.518;10.870;2023-04-24T11:47:02;3.28;;;2.88;;
32932;SDS011;19444;50.518;10.870;2023-04-24T11:50:04;6.53;;;1.92;;
32932;SDS011;19444;50.518;10.870;2023-04-24T11:53:03;1.42;;;1.02;;
32932;SDS011;19444;50.518;10.870;2023-04-24T11:56:03;1.73;;;1.20;;
32932;SDS011;19444;50.518;10.870;2023-04-24T11:59:03;2.03;;;1.65;;
32932;SDS011;19444;50.518;10.870;2023-04-24T12:02:00;1.13;;;0.80;;
32932;SDS011;19444;50.518;10.870;2023-04-24T12:04:57;2.25;;;1.20;;
32932;SDS011;19444;50.518;10.870;2023-04-24T12:07:54;2.63;;;1.35;;
32932;SDS011;19444;50.518;10.870;2023-04-24T12:10:51;3.53;;;1.45;;
32932;SDS011;19444;50.518;10.870;2023-04-24T12:13:48;1.85;;;1.27;;
32932;SDS011;19444;50.518;10.870;2023-04-24T12:16:47;2.50;;;1.48;;
32932;SDS011;19444;50.518;10.870;2023-04-24T12:19:47;2.67;;;1.55;;
32932;SDS011;19444;50.518;10.870;2023-04-24T12:22:51;3.00;;;1.17;;
32932;SDS011;19444;50.518;10.870;2023-04-24T12:25:50;2.50;;;1.33;;
32932;SDS011;19444;50.518;10.870;2023-04-24T12:28:48;2.15;;;1.58;;
32932;SDS011;19444;50.518;10.870;2023-04-24T12:31:46;2.75;;;1.23;;
32932;SDS011;19444;50.518;10.870;2023-04-24T12:34:43;2.67;;;1.30;;
32932;SDS011;19444;50.518;10.870;2023-04-24T12:37:42;1.88;;;1.25;;
32932;SDS011;19444;50.518;10.870;2023-04-24T12:40:42;2.42;;;1.15;;
32932;SDS011;19444;50.518;10.870;2023-04-24T12:43:53;1.33;;;0.95;;
32932;SDS011;19444;50.518;10.870;2023-04-24T12:46:51;2.75;;;1.20;;
32932;SDS011;19444;50.518;10.870;2023-04-24T12:49:48;1.95;;;1.50;;
32932;SDS011;19444;50.518;10.870;2023-04-24T12:52:47;1.92;;;0.98;;
32932;SDS011;19444;50.518;10.870;2023-04-24T12:55:44;1.75;;;1.20;;
32932;SDS011;19444;50.518;10.870;2023-04-24T12:58:42;1.77;;;0.90;;
32932;SDS011;19444;50.518;10.870;2023-04-24T13:01:40;1.70;;;1.08;;
32932;SDS011;19444;50.518;10.870;2023-04-24T13:04:37;1.40;;;0.80;;
32932;SDS011;19444;50.518;10.870;2023-04-24T13:07:34;1.05;;;0.80;;
32932;SDS011;19444;50.518;10.870;2023-04-24T13:10:31;1.50;;;1.17;;
32932;SDS011;19444;50.518;10.870;2023-04-24T13:13:28;2.78;;;0.80;;
32932;SDS011;19444;50.518;10.870;2023-04-24T13:16:25;1.45;;;1.00;;
32932;SDS011;19444;50.518;10.870;2023-04-24T13:19:23;1.60;;;0.95;;
32932;SDS011;19444;50.518;10.870;2023-04-24T13:22:23;1.55;;;1.00;;
32932;SDS011;19444;50.518;10.870;2023-04-24T13:25:19;2.00;;;0.95;;
32932;SDS011;19444;50.518;10.870;2023-04-24T13:28:18;1.65;;;0.75;;
32932;SDS011;19444;50.518;10.870;2023-04-24T13:31:15;1.55;;;0.98;;
32932;SDS011;19444;50.518;10.870;2023-04-24T13:34:13;1.40;;;0.70;;
32932;SDS011;19444;50.518;10.870;2023-04-24T13:37:10;0.90;;;0.65;;
32932;SDS011;19444;50.518;10.870;2023-04-24T13:40:07;2.97;;;0.95;;
32932;SDS011;19444;50.518;10.870;2023-04-24T13:43:05;0.88;;;0.60;;
32932;SDS011;19444;50.518;10.870;2023-04-24T13:46:02;1.05;;;0.63;;
32932;SDS011;19444;50.518;10.870;2023-04-24T13:48:59;0.70;;;0.40;;
32932;SDS011;19444;50.518;10.870;2023-04-24T13:51:56;1.63;;;0.60;;
32932;SDS011;19444;50.518;10.870;2023-04-24T13:54:53;0.50;;;0.40;;
32932;SDS011;19444;50.518;10.870;2023-04-24T13:57:50;1.25;;;0.40;;
32932;SDS011;19444;50.518;10.870;2023-04-24T14:00:48;1.05;;;0.50;;
32932;SDS011;19444;50.518;10.870;2023-04-24T14:03:45;1.20;;;0.52;;
32932;SDS011;19444;50.518;10.870;2023-04-24T14:06:43;1.00;;;0.50;;
32932;SDS011;19444;50.518;10.870;2023-04-24T14:09:40;1.00;;;0.55;;
32932;SDS011;19444;50.518;10.870;2023-04-24T14:12:37;0.75;;;0.40;;
32932;SDS011;19444;50.518;10.870;2023-04-24T14:15:35;0.63;;;0.30;;
32932;SDS011;19444;50.518;10.870;2023-04-24T14:18:32;0.85;;;0.20;;
32932;SDS011;19444;50.518;10.870;2023-04-24T14:21:29;0.75;;;0.20;;
32932;SDS011;19444;50.518;10.870;2023-04-24T14:24:26;0.47;;;0.20;;
32932;SDS011;19444;50.518;10.870;2023-04-24T14:27:24;0.32;;;0.17;;
32932;SDS011;19444;50.518;10.870;2023-04-24T14:30:22;0.22;;;0.20;;
32932;SDS011;19444;50.518;10.870;2023-04-24T14:33:18;0.50;;;0.35;;
32932;SDS011;19444;50.518;10.870;2023-04-24T14:36:15;0.88;;;0.30;;
32932;SDS011;19444;50.518;10.870;2023-04-24T14:39:12;0.57;;;0.30;;
32932;SDS011;19444;50.518;10.870;2023-04-24T14:42:09;0.55;;;0.30;;
32932;SDS011;19444;50.518;10.870;2023-04-24T14:45:06;0.60;;;0.30;;
32932;SDS011;19444;50.518;10.870;2023-04-24T14:48:04;0.45;;;0.30;;
32932;SDS011;19444;50.518;10.870;2023-04-24T14:51:01;0.82;;;0.47;;
32932;SDS011;19444;50.518;10.870;2023-04-24T14:53:58;2.00;;;0.60;;
32932;SDS011;19444;50.518;10.870;2023-04-24T14:56:55;1.00;;;0.60;;
32932;SDS011;19444;50.518;10.870;2023-04-24T14:59:54;0.60;;;0.38;;
32932;SDS011;19444;50.518;10.870;2023-04-24T15:02:51;0.52;;;0.30;;
32932;SDS011;19444;50.518;10.870;2023-04-24T15:05:49;1.17;;;0.45;;
32932;SDS011;19444;50.518;10.870;2023-04-24T15:08:47;0.40;;;0.20;;
32932;SDS011;19444;50.518;10.870;2023-04-24T15:11:46;0.68;;;0.47;;
32932;SDS011;19444;50.518;10.870;2023-04-24T15:14:43;0.90;;;0.52;;
32932;SDS011;19444;50.518;10.870;2023-04-24T15:17:39;0.73;;;0.40;;
32932;SDS011;19444;50.518;10.870;2023-04-24T15:20:36;1.25;;;0.40;;
32932;SDS011;19444;50.518;10.870;2023-04-24T15:23:35;0.73;;;0.30;;
32932;SDS011;19444;50.518;10.870;2023-04-24T15:26:32;0.60;;;0.30;;
32932;SDS011;19444;50.518;10.870;2023-04-24T15:29:29;1.20;;;0.50;;
32932;SDS011;19444;50.518;10.870;2023-04-24T15:32:26;0.50;;;0.30;;
32932;SDS011;19444;50.518;10.870;2023-04-24T15:35:23;0.52;;;0.30;;
32932;SDS011;19444;50.518;10.870;2023-04-24T15:38:20;0.40;;;0.20;;
32932;SDS011;19444;50.518;10.870;2023-04-24T15:41:17;1.23;;;0.50;;
32932;SDS011;19444;50.518;10.870;2023-04-24T15:44:14;0.60;;;0.40;;
32932;SDS011;19444;50.518;10.870;2023-04-24T15:47:10;0.70;;;0.20;;
32932;SDS011;19444;50.518;10.870;2023-04-24T15:50:10;0.40;;;0.30;;
32932;SDS011;19444;50.518;10.870;2023-04-24T15:53:09;1.17;;;0.50;;
32932;SDS011;19444;50.518;10.870;2023-04-24T15:56:06;1.27;;;0.43;;
32932;SDS011;19444;50.518;10.870;2023-04-24T15:59:04;0.70;;;0.40;;
32932;SDS011;19444;50.518;10.870;2023-04-24T16:02:01;0.40;;;0.20;;
32932;SDS011;19444;50.518;10.870;2023-04-24T16:04:59;0.40;;;0.20;;
32932;SDS011;19444;50.518;10.870;2023-04-24T16:07:57;0.90;;;0.40;;
32932;SDS011;19444;50.518;10.870;2023-04-24T16:10:53;0.75;;;0.40;;
32932;SDS011;19444;50.518;10.870;2023-04-24T16:13:50;0.75;;;0.40;;
32932;SDS011;19444;50.518;10.870;2023-04-24T16:16:47;1.85;;;0.85;;
32932;SDS011;19444;50.518;10.870;2023-04-24T16:19:44;2.00;;;0.77;;
32932;SDS011;19444;50.518;10.870;2023-04-24T16:22:41;1.08;;;0.50;;
32932;SDS011;19444;50.518;10.870;2023-04-24T16:25:38;0.43;;;0.40;;
32932;SDS011;19444;50.518;10.870;2023-04-24T16:28:35;0.80;;;0.40;;
32932;SDS011;19444;50.518;10.870;2023-04-24T16:31:32;1.50;;;0.40;;
32932;SDS011;19444;50.518;10.870;2023-04-24T16:34:29;1.15;;;0.80;;
32932;SDS011;19444;50.518;10.870;2023-04-24T16:37:28;1.48;;;0.60;;
32932;SDS011;19444;50.518;10.870;2023-04-24T16:40:25;1.40;;;0.63;;
32932;SDS011;19444;50.518;10.870;2023-04-24T16:43:22;2.50;;;2.00;;
32932;SDS011;19444;50.518;10.870;2023-04-24T16:46:19;4.40;;;2.25;;
32932;SDS011;19444;50.518;10.870;2023-04-24T16:49:16;2.30;;;1.10;;
32932;SDS011;19444;50.518;10.870;2023-04-24T16:52:13;2.08;;;1.08;;
32932;SDS011;19444;50.518;10.870;2023-04-24T16:55:11;3.45;;;1.67;;
32932;SDS011;19444;50.518;10.870;2023-04-24T16:58:08;2.20;;;1.60;;
32932;SDS011;19444;50.518;10.870;2023-04-24T17:01:05;1.95;;;1.20;;
32932;SDS011;19444;50.518;10.870;2023-04-24T17:04:02;2.88;;;1.55;;
32932;SDS011;19444;50.518;10.870;2023-04-24T17:06:59;2.67;;;1.60;;
32932;SDS011;19444;50.518;10.870;2023-04-24T17:09:56;2.88;;;2.20;;
32932;SDS011;19444;50.518;10.870;2023-04-24T17:12:53;3.00;;;2.08;;
32932;SDS011;19444;50.518;10.870;2023-04-24T17:15:50;3.58;;;2.45;;
32932;SDS011;19444;50.518;10.870;2023-04-24T17:18:47;4.00;;;2.22;;
32932;SDS011;19444;50.518;10.870;2023-04-24T17:21:45;3.58;;;2.25;;
32932;SDS011;19444;50.518;10.870;2023-04-24T17:24:42;4.80;;;2.20;;
32932;SDS011;19444;50.518;10.870;2023-04-24T17:27:38;4.05;;;2.28;;
32932;SDS011;19444;50.518;10.870;2023-04-24T17:30:35;2.97;;;2.00;;
32932;SDS011;19444;50.518;10.870;2023-04-24T17:33:32;3.83;;;2.08;;